Mantachie, Mississippi
Current Conditions -  °F | °C
As of 7:53 AM on Monday 22 Dec 2014 (Local Time) from KTUP Reporting Station
Overcast Overcast  
Wind Chill: 52°   Ceiling: 500
Heat Index: 52°   Visibility: 7mi
Dew Point: 49°   Wind: 9mph
Humidity: 89%   Direction: 160°SSE
Pressure: 29.87"   Gusts: NA
Location:  34.32°N, 88.49°W
Report Text: KTUP 221353Z 16008KT 7SM OVC005 11/09 A2987 RMK AO2 SLP115 T01110094
Loading
Personal Weather Stations






























Interactive Weather Map New forecast layout! Learn more

10-Day Weather Forecast

Advertisements
Track Severe Weather on mobile